X  Chiuso Dati meteorologici dell'aviazione (METAR)        EDDH Flugplatz Hohn Airport
Temperatura
46°F Temperatura
45°F Punto di rugiada
93% Umidità



Vento
3 MPH
6 KM/O
1 M/S
3 KTS



240°
OSO
Condizioni attuali

Mostly Clear Prevalentemente limpido
Pressione 997 (hPa) - 29.44 (inHg)
Visibilità 6 (miglio) - 10 (km)
Aeroporto
Codice-Aeroporto EDDH

Posizione: Flugplatz Hohn Airport
Distanza: 40 (mi)

Metar:
METAR EDDH 281750Z AUTO 24003KT CAVOK 08/07 Q0997 NOSIG

Ore: 28-09-2022 19:50 CEST